createdAt,value
2022-10-06T00:00:10.233Z,10.20
2022-10-06T00:02:38.725Z,10.20
2022-10-06T00:05:07.169Z,10.20
2022-10-06T00:07:36.706Z,10.22
2022-10-06T00:10:05.759Z,10.22
2022-10-06T00:12:40.694Z,10.20
2022-10-06T00:15:13.416Z,10.23
2022-10-06T00:17:43.335Z,10.24
2022-10-06T00:20:12.596Z,10.25
2022-10-06T00:22:43.638Z,10.25
2022-10-06T00:25:16.038Z,10.25
2022-10-06T00:27:47.308Z,10.28
2022-10-06T00:30:19.323Z,10.32
2022-10-06T00:32:53.294Z,10.34
2022-10-06T00:35:21.918Z,10.34
2022-10-06T00:37:50.972Z,10.33
2022-10-06T00:40:20.436Z,10.33
2022-10-06T00:42:54.965Z,10.33
2022-10-06T00:45:31.314Z,10.31
2022-10-06T00:48:03.802Z,10.30
2022-10-06T00:50:33.097Z,10.27
2022-10-06T00:53:01.670Z,10.29
2022-10-06T00:55:31.679Z,10.27
2022-10-06T00:58:01.609Z,10.28
2022-10-06T01:00:31.375Z,10.27
2022-10-06T01:03:05.821Z,10.27
2022-10-06T01:05:41.016Z,10.26
2022-10-06T01:08:10.814Z,10.20
2022-10-06T01:10:39.800Z,10.24
2022-10-06T01:13:10.677Z,10.23
2022-10-06T01:15:46.122Z,10.20
2022-10-06T01:18:18.735Z,10.17
2022-10-06T01:20:51.963Z,10.11
2022-10-06T01:23:22.592Z,10.17
2022-10-06T01:25:51.354Z,10.16
2022-10-06T01:28:21.084Z,10.14
2022-10-06T01:30:53.464Z,10.16
2022-10-06T01:33:23.521Z,10.14
2022-10-06T01:35:53.926Z,10.12
2022-10-06T01:38:24.429Z,10.10
2022-10-06T01:40:54.610Z,10.05
2022-10-06T01:43:23.476Z,10.10
2022-10-06T01:45:56.922Z,10.09
2022-10-06T01:48:26.536Z,10.10
2022-10-06T01:50:55.474Z,10.07
2022-10-06T01:53:25.501Z,10.09
2022-10-06T01:55:58.463Z,10.10
2022-10-06T01:58:27.177Z,10.01
2022-10-06T02:00:55.946Z,10.12
2022-10-06T02:03:24.560Z,10.16
2022-10-06T02:05:53.058Z,10.14
2022-10-06T02:08:21.473Z,10.18
2022-10-06T02:10:51.758Z,10.21
2022-10-06T02:13:24.787Z,10.26
2022-10-06T02:15:57.364Z,10.26
2022-10-06T02:18:26.629Z,10.31
2022-10-06T02:20:55.748Z,10.20
2022-10-06T02:23:24.004Z,10.28
2022-10-06T02:26:00.313Z,10.34
2022-10-06T02:28:29.471Z,10.28
2022-10-06T02:31:02.717Z,10.38
2022-10-06T02:33:31.289Z,10.42
2022-10-06T02:36:00.041Z,10.35
2022-10-06T02:38:29.111Z,10.46
2022-10-06T02:40:59.467Z,10.50
2022-10-06T02:43:29.027Z,10.54
2022-10-06T02:45:58.143Z,10.59
2022-10-06T02:48:27.718Z,10.68
2022-10-06T02:51:00.582Z,10.75
2022-10-06T02:53:29.932Z,10.78
2022-10-06T02:56:04.244Z,10.78
2022-10-06T02:58:33.603Z,10.77
2022-10-06T03:01:08.238Z,10.78
2022-10-06T03:03:37.134Z,10.72
2022-10-06T03:06:21.868Z,10.71
2022-10-06T03:08:51.297Z,10.55
2022-10-06T03:11:22.382Z,10.58
2022-10-06T03:13:52.083Z,10.51
2022-10-06T03:16:22.960Z,10.51
2022-10-06T03:18:52.864Z,10.44
2022-10-06T03:21:23.296Z,10.43
2022-10-06T03:23:53.794Z,10.37
2022-10-06T03:26:28.087Z,10.36
2022-10-06T03:28:56.574Z,10.32
2022-10-06T03:31:25.641Z,10.31
2022-10-06T03:33:54.578Z,10.18
2022-10-06T03:36:24.998Z,10.25
2022-10-06T03:38:53.693Z,10.24
2022-10-06T03:41:26.739Z,10.20
2022-10-06T03:43:59.055Z,10.32
2022-10-06T03:46:29.723Z,10.35
2022-10-06T03:49:00.014Z,10.41
2022-10-06T03:51:31.414Z,10.47
2022-10-06T03:54:01.491Z,10.48
2022-10-06T03:56:33.580Z,10.58
2022-10-06T03:59:03.748Z,10.62
2022-10-06T04:01:34.397Z,10.65
2022-10-06T04:04:06.714Z,10.64
2022-10-06T04:06:37.331Z,10.55
2022-10-06T04:09:08.489Z,10.62
2022-10-06T04:11:47.100Z,10.62
2022-10-06T04:14:19.983Z,10.48
2022-10-06T04:16:50.218Z,10.44
2022-10-06T04:19:19.862Z,10.35
2022-10-06T04:21:49.980Z,10.39
2022-10-06T04:24:19.443Z,10.42
2022-10-06T04:26:50.385Z,10.44
2022-10-06T04:29:18.971Z,10.54
2022-10-06T04:31:47.564Z,10.58
2022-10-06T04:34:15.932Z,10.58
2022-10-06T04:36:44.994Z,10.63
2022-10-06T04:39:14.718Z,10.64
2022-10-06T04:41:47.576Z,10.70
2022-10-06T04:44:17.419Z,10.64
2022-10-06T04:46:46.619Z,10.78
2022-10-06T04:49:20.032Z,10.80
2022-10-06T04:51:49.794Z,10.79
2022-10-06T04:54:19.459Z,10.83
2022-10-06T04:56:48.617Z,10.95
2022-10-06T04:59:18.811Z,11.06
2022-10-06T05:01:47.715Z,11.14
2022-10-06T05:04:16.329Z,11.22
2022-10-06T05:06:44.631Z,11.23
2022-10-06T05:09:15.981Z,11.21
2022-10-06T05:11:44.431Z,11.24
2022-10-06T05:14:13.323Z,11.20
2022-10-06T05:16:43.512Z,11.20
2022-10-06T05:19:11.928Z,11.25
2022-10-06T05:21:40.669Z,11.27
2022-10-06T05:24:11.406Z,11.28
2022-10-06T05:26:40.244Z,11.32
2022-10-06T05:29:08.946Z,11.28
2022-10-06T05:31:41.488Z,11.34
2022-10-06T05:34:11.784Z,11.40
2022-10-06T05:36:40.344Z,11.42
2022-10-06T05:39:09.321Z,11.45
2022-10-06T05:41:38.420Z,11.49
2022-10-06T05:44:08.863Z,11.51
2022-10-06T05:46:38.537Z,11.56
2022-10-06T05:49:10.530Z,11.55
2022-10-06T05:51:41.167Z,11.57
2022-10-06T05:54:09.886Z,11.59
2022-10-06T05:56:40.386Z,11.56
2022-10-06T05:59:09.246Z,11.66
2022-10-06T06:01:41.721Z,11.70
2022-10-06T06:04:11.709Z,11.74
2022-10-06T06:06:42.926Z,11.72
2022-10-06T06:09:13.388Z,11.71
2022-10-06T06:11:43.642Z,11.82
2022-10-06T06:14:15.103Z,11.87
2022-10-06T06:16:43.889Z,11.91
2022-10-06T06:19:14.561Z,11.92
2022-10-06T06:21:44.515Z,12.07
2022-10-06T06:24:12.994Z,12.13
2022-10-06T06:26:42.181Z,12.16
2022-10-06T06:29:10.665Z,12.18
2022-10-06T06:31:40.623Z,12.22
2022-10-06T06:34:09.475Z,12.24
2022-10-06T06:36:41.755Z,12.25
2022-10-06T06:39:14.376Z,12.20
2022-10-06T06:41:45.457Z,12.34
2022-10-06T06:44:15.867Z,12.37
2022-10-06T06:46:48.796Z,12.45
2022-10-06T06:49:38.887Z,12.54
2022-10-06T06:52:08.783Z,12.57
2022-10-06T06:54:41.226Z,12.64
2022-10-06T06:57:10.263Z,12.71
2022-10-06T06:59:39.138Z,12.74
2022-10-06T07:02:07.684Z,12.77
2022-10-06T07:04:37.828Z,12.76
2022-10-06T07:07:07.270Z,12.76
2022-10-06T07:09:35.572Z,12.91
2022-10-06T07:12:05.639Z,13.06
2022-10-06T07:14:34.332Z,13.22
2022-10-06T07:17:19.925Z,13.31
2022-10-06T07:20:05.555Z,13.48
2022-10-06T07:22:52.539Z,13.50
2022-10-06T07:25:26.267Z,13.35
2022-10-06T07:27:56.621Z,13.48
2022-10-06T07:30:29.763Z,13.58
2022-10-06T07:32:59.116Z,13.54
2022-10-06T07:35:27.784Z,13.57
2022-10-06T07:37:58.400Z,13.51
2022-10-06T07:40:27.136Z,13.58
2022-10-06T07:42:57.532Z,13.64
2022-10-06T07:45:41.764Z,13.82
2022-10-06T07:48:14.738Z,13.81
2022-10-06T07:50:44.079Z,13.60
2022-10-06T07:53:12.857Z,13.55
2022-10-06T07:55:44.754Z,13.34
2022-10-06T07:58:16.211Z,13.26
2022-10-06T08:00:45.977Z,13.21
2022-10-06T08:03:18.284Z,13.15
2022-10-06T08:05:47.311Z,13.10
2022-10-06T08:08:18.713Z,13.09
2022-10-06T08:10:54.265Z,13.09
2022-10-06T08:13:24.792Z,13.14
2022-10-06T08:15:56.696Z,13.10
2022-10-06T08:18:48.766Z,13.19
2022-10-06T08:21:16.018Z,13.18
2022-10-06T08:23:46.061Z,13.13
2022-10-06T08:26:16.192Z,13.05
2022-10-06T08:28:58.034Z,12.99
2022-10-06T08:31:27.140Z,12.81
2022-10-06T08:33:57.472Z,12.81
2022-10-06T08:36:32.051Z,12.71
2022-10-06T08:39:01.103Z,12.64
2022-10-06T08:41:40.274Z,12.70
2022-10-06T08:44:21.382Z,12.70
2022-10-06T08:47:00.653Z,12.77
2022-10-06T08:49:39.111Z,12.84
2022-10-06T08:52:28.022Z,12.89
2022-10-06T08:55:04.922Z,12.86
2022-10-06T08:57:40.403Z,12.95
2022-10-06T09:00:18.160Z,12.99
2022-10-06T09:02:51.587Z,13.09
2022-10-06T09:05:25.873Z,13.22
2022-10-06T09:08:20.998Z,13.48
2022-10-06T09:11:02.428Z,13.50
2022-10-06T09:13:34.241Z,13.63
2022-10-06T09:16:08.714Z,13.87
2022-10-06T09:19:07.323Z,14.11
2022-10-06T09:21:37.261Z,14.34
2022-10-06T09:24:12.664Z,14.40
2022-10-06T09:26:44.560Z,14.46
2022-10-06T09:29:13.494Z,14.31
2022-10-06T09:31:49.606Z,14.23
2022-10-06T09:34:27.021Z,14.38
2022-10-06T09:37:02.177Z,14.56
2022-10-06T09:39:36.804Z,14.38
2022-10-06T09:42:12.705Z,14.50
2022-10-06T09:44:51.730Z,14.51
2022-10-06T09:47:37.403Z,14.55
2022-10-06T09:50:16.578Z,14.36
2022-10-06T09:53:03.910Z,14.15
2022-10-06T09:55:37.053Z,14.37
2022-10-06T09:58:16.982Z,14.43
2022-10-06T10:00:50.425Z,14.52
2022-10-06T10:03:20.601Z,14.46
2022-10-06T10:05:51.345Z,14.38
2022-10-06T10:08:23.371Z,14.21
2022-10-06T10:10:52.711Z,14.16
2022-10-06T10:13:24.180Z,14.20
2022-10-06T10:15:55.603Z,14.29
2022-10-06T10:18:28.942Z,14.48
2022-10-06T10:21:00.286Z,14.40
2022-10-06T10:23:32.254Z,14.36
2022-10-06T10:26:27.250Z,14.48
2022-10-06T10:29:08.194Z,14.86
2022-10-06T10:31:49.303Z,15.02
2022-10-06T10:34:43.816Z,15.46
2022-10-06T10:37:16.598Z,15.71
2022-10-06T10:40:01.797Z,15.66
2022-10-06T10:42:37.394Z,15.81
2022-10-06T10:45:13.398Z,15.68
2022-10-06T10:47:46.360Z,15.46
2022-10-06T10:50:25.931Z,15.44
2022-10-06T10:52:59.937Z,15.43
2022-10-06T10:55:29.862Z,15.34
2022-10-06T10:58:02.953Z,15.52
2022-10-06T11:00:35.521Z,15.17
2022-10-06T11:03:04.114Z,15.56
2022-10-06T11:05:50.963Z,15.61
2022-10-06T11:08:28.986Z,15.42
2022-10-06T11:11:00.064Z,15.39
2022-10-06T11:13:35.415Z,15.39
2022-10-06T11:16:26.889Z,15.57
2022-10-06T11:19:09.284Z,15.85
2022-10-06T11:21:48.097Z,16.04
2022-10-06T11:24:20.643Z,16.14
2022-10-06T11:27:08.074Z,16.44
2022-10-06T11:29:47.209Z,16.70
2022-10-06T11:32:26.811Z,16.59
2022-10-06T11:34:55.704Z,16.46
2022-10-06T11:37:37.393Z,15.79
2022-10-06T11:40:26.824Z,15.86
2022-10-06T11:43:02.084Z,15.84
2022-10-06T11:45:39.023Z,15.81
2022-10-06T11:48:24.795Z,15.69
2022-10-06T11:50:55.715Z,15.50
2022-10-06T11:53:43.312Z,15.27
2022-10-06T11:56:45.157Z,15.14
2022-10-06T11:59:26.687Z,15.37
2022-10-06T12:01:57.773Z,15.46
2022-10-06T12:04:27.932Z,15.54
2022-10-06T12:07:01.614Z,15.65
2022-10-06T12:09:46.298Z,15.81
2022-10-06T12:12:47.724Z,15.79
2022-10-06T12:18:59.381Z,16.12
2022-10-06T12:21:37.320Z,16.43
2022-10-06T12:24:19.634Z,16.66
2022-10-06T12:26:58.623Z,16.52
2022-10-06T12:29:40.713Z,16.46
2022-10-06T12:32:34.670Z,16.41
2022-10-06T12:35:13.614Z,16.40
2022-10-06T12:37:44.669Z,16.35
2022-10-06T12:40:44.334Z,16.22
2022-10-06T12:43:35.643Z,16.17
2022-10-06T12:46:08.444Z,16.16
2022-10-06T12:48:43.105Z,16.21
2022-10-06T12:51:23.760Z,16.19
2022-10-06T12:54:00.185Z,16.19
2022-10-06T12:56:31.555Z,16.24
2022-10-06T12:59:20.467Z,16.36
2022-10-06T13:01:50.989Z,16.31
2022-10-06T13:04:36.192Z,16.31
2022-10-06T13:07:15.336Z,16.29
2022-10-06T13:09:44.939Z,16.29
2022-10-06T13:12:32.064Z,16.32
2022-10-06T13:15:20.063Z,16.43
2022-10-06T13:17:51.581Z,16.36
2022-10-06T13:20:23.300Z,16.42
2022-10-06T13:23:02.979Z,16.56
2022-10-06T13:25:37.262Z,16.54
2022-10-06T13:28:06.407Z,16.50
2022-10-06T13:30:38.711Z,16.63
2022-10-06T13:33:10.405Z,16.41
2022-10-06T13:35:39.733Z,16.37
2022-10-06T13:38:08.165Z,16.58
2022-10-06T13:40:44.591Z,16.64
2022-10-06T13:43:18.799Z,16.61
2022-10-06T13:45:49.637Z,16.55
2022-10-06T13:48:23.845Z,16.38
2022-10-06T13:50:53.198Z,16.21
2022-10-06T13:53:27.646Z,16.19
2022-10-06T13:55:56.504Z,16.26
2022-10-06T13:58:29.125Z,16.41
2022-10-06T14:01:02.158Z,16.41
2022-10-06T14:06:16.402Z,16.44
2022-10-06T14:08:50.910Z,16.46
2022-10-06T14:11:25.659Z,16.57
2022-10-06T14:13:57.962Z,16.51
2022-10-06T14:16:29.554Z,16.53
2022-10-06T14:19:00.450Z,16.46
2022-10-06T14:21:35.752Z,16.49
2022-10-06T14:24:09.286Z,16.44
2022-10-06T14:26:38.638Z,16.40
2022-10-06T14:29:06.814Z,16.37
2022-10-06T14:31:36.336Z,16.19
2022-10-06T14:34:05.809Z,16.24
2022-10-06T14:36:37.368Z,16.22
2022-10-06T14:39:07.932Z,16.32
2022-10-06T14:41:36.477Z,16.29
2022-10-06T14:44:08.682Z,16.26
2022-10-06T14:46:39.560Z,16.20
2022-10-06T14:49:08.765Z,16.19
2022-10-06T14:51:38.197Z,16.19
2022-10-06T14:54:07.791Z,16.22
2022-10-06T14:56:37.934Z,16.12
2022-10-06T14:59:08.226Z,16.01
2022-10-06T15:01:41.255Z,16.08
2022-10-06T15:04:12.075Z,15.96
2022-10-06T15:06:58.495Z,15.90
2022-10-06T15:09:29.704Z,16.08
2022-10-06T15:11:59.795Z,16.03
2022-10-06T15:14:28.568Z,15.86
2022-10-06T15:17:00.471Z,15.79
2022-10-06T15:19:28.836Z,15.77
2022-10-06T15:21:57.117Z,15.69
2022-10-06T15:24:25.557Z,15.65
2022-10-06T15:27:11.138Z,15.53
2022-10-06T15:29:39.562Z,15.43
2022-10-06T15:32:09.649Z,15.40
2022-10-06T15:34:38.370Z,15.41
2022-10-06T15:37:07.554Z,15.33
2022-10-06T15:39:38.379Z,15.27
2022-10-06T15:42:08.298Z,15.24
2022-10-06T15:44:36.924Z,15.35
2022-10-06T15:47:06.716Z,15.43
2022-10-06T15:49:40.602Z,15.49
2022-10-06T15:52:11.413Z,15.35
2022-10-06T15:54:41.779Z,15.41
2022-10-06T15:57:16.390Z,15.28
2022-10-06T15:59:48.258Z,15.29
2022-10-06T16:02:20.379Z,15.33
2022-10-06T16:05:17.775Z,15.23
2022-10-06T16:07:45.915Z,15.02
2022-10-06T16:10:14.103Z,14.86
2022-10-06T16:12:42.605Z,14.79
2022-10-06T16:15:11.537Z,14.77
2022-10-06T16:17:39.713Z,14.83
2022-10-06T16:20:11.616Z,14.65
2022-10-06T16:22:40.261Z,14.44
2022-10-06T16:25:09.765Z,14.53
2022-10-06T16:27:39.552Z,14.65
2022-10-06T16:30:09.780Z,14.45
2022-10-06T16:32:38.346Z,14.40
2022-10-06T16:35:07.708Z,14.14
2022-10-06T16:37:37.590Z,14.13
2022-10-06T16:40:06.510Z,13.98
2022-10-06T16:42:34.964Z,13.86
2022-10-06T16:45:03.276Z,13.70
2022-10-06T16:47:31.463Z,13.58
2022-10-06T16:49:59.652Z,13.51
2022-10-06T16:52:27.925Z,13.29
2022-10-06T16:55:02.781Z,13.32
2022-10-06T16:57:31.323Z,13.22
2022-10-06T17:00:00.518Z,13.02
2022-10-06T17:02:28.733Z,12.87
2022-10-06T17:04:57.117Z,12.70
2022-10-06T17:07:25.770Z,12.46
2022-10-06T17:10:15.687Z,12.32
2022-10-06T17:12:44.204Z,12.17
2022-10-06T17:15:16.438Z,12.04
2022-10-06T17:17:48.865Z,11.88
2022-10-06T17:20:20.596Z,11.76
2022-10-06T17:22:50.510Z,11.68
2022-10-06T17:25:18.707Z,11.59
2022-10-06T17:27:48.674Z,11.47
2022-10-06T17:30:18.909Z,11.36
2022-10-06T17:32:47.505Z,11.30
2022-10-06T17:35:16.009Z,11.36
2022-10-06T17:37:45.050Z,11.29
2022-10-06T17:40:13.610Z,11.13
2022-10-06T17:42:54.114Z,11.08
2022-10-06T17:45:25.703Z,10.88
2022-10-06T17:47:59.133Z,10.83
2022-10-06T17:50:34.803Z,10.78
2022-10-06T17:53:04.312Z,10.62
2022-10-06T17:55:32.926Z,10.63
2022-10-06T17:58:04.221Z,10.55
2022-10-06T18:00:33.789Z,10.38
2022-10-06T18:03:02.065Z,10.45
2022-10-06T18:05:33.145Z,10.37
2022-10-06T18:08:01.900Z,10.33
2022-10-06T18:10:48.114Z,10.43
2022-10-06T18:13:18.219Z,10.44
2022-10-06T18:15:46.797Z,10.34
2022-10-06T18:18:15.003Z,10.16
2022-10-06T18:20:43.881Z,10.31
2022-10-06T18:23:12.491Z,10.22
2022-10-06T18:25:41.560Z,10.07
2022-10-06T18:28:12.340Z,10.07
2022-10-06T18:30:42.175Z,9.97
2022-10-06T18:36:16.150Z,9.87
2022-10-06T18:38:47.637Z,9.86
2022-10-06T18:41:19.881Z,9.90
2022-10-06T18:43:48.509Z,9.86
2022-10-06T18:46:39.148Z,9.87
2022-10-06T18:49:10.705Z,9.82
2022-10-06T18:51:41.763Z,9.82
2022-10-06T18:54:12.344Z,9.70
2022-10-06T18:56:41.144Z,9.62
2022-10-06T18:59:13.473Z,9.52
2022-10-06T19:01:45.583Z,9.41
2022-10-06T19:04:16.343Z,9.36
2022-10-06T19:06:50.010Z,9.33
2022-10-06T19:09:20.170Z,9.29
2022-10-06T19:11:52.452Z,9.22
2022-10-06T19:14:22.662Z,9.15
2022-10-06T19:16:56.512Z,9.08
2022-10-06T19:19:26.668Z,9.02
2022-10-06T19:21:59.853Z,8.93
2022-10-06T19:24:31.208Z,8.98
2022-10-06T19:27:00.133Z,8.91
2022-10-06T19:29:30.319Z,8.86
2022-10-06T19:32:00.615Z,8.83
2022-10-06T19:34:29.141Z,8.77
2022-10-06T19:36:58.394Z,8.74
2022-10-06T19:39:30.471Z,8.61
2022-10-06T19:42:17.250Z,8.68
2022-10-06T19:44:46.255Z,8.67
2022-10-06T19:47:17.821Z,8.60
2022-10-06T19:49:46.381Z,8.62
2022-10-06T19:52:17.256Z,8.63
2022-10-06T19:54:49.996Z,8.53
2022-10-06T19:57:20.193Z,8.48
2022-10-06T19:59:53.227Z,8.44
2022-10-06T20:02:24.039Z,8.42
2022-10-06T20:04:53.859Z,8.45
2022-10-06T20:07:25.551Z,8.20
2022-10-06T20:09:53.992Z,8.32
2022-10-06T20:12:25.320Z,8.28
2022-10-06T20:14:54.139Z,8.27
2022-10-06T20:17:24.002Z,8.29
2022-10-06T20:19:57.317Z,8.18
2022-10-06T20:22:26.534Z,8.14
2022-10-06T20:24:55.142Z,8.04
2022-10-06T20:27:23.277Z,8.08
2022-10-06T20:29:51.838Z,8.13
2022-10-06T20:32:20.092Z,8.14
2022-10-06T20:34:50.159Z,8.06
2022-10-06T20:37:32.606Z,8.03
2022-10-06T20:40:26.738Z,7.97
2022-10-06T20:43:00.950Z,7.88
2022-10-06T20:45:29.925Z,7.93
2022-10-06T20:48:00.443Z,7.89
2022-10-06T20:50:32.141Z,7.90
2022-10-06T20:53:01.340Z,7.84
2022-10-06T20:55:29.986Z,7.86
2022-10-06T20:58:01.489Z,7.92
2022-10-06T21:00:30.429Z,7.94
2022-10-06T21:02:58.844Z,7.88
2022-10-06T21:05:33.180Z,7.86
2022-10-06T21:08:03.004Z,7.85
2022-10-06T21:10:31.274Z,7.75
2022-10-06T21:12:59.526Z,7.77
2022-10-06T21:15:27.979Z,7.75
2022-10-06T21:17:56.272Z,7.73
2022-10-06T21:20:24.774Z,7.83
2022-10-06T21:22:53.776Z,7.85
2022-10-06T21:25:23.518Z,7.76
2022-10-06T21:27:52.567Z,7.72
2022-10-06T21:30:20.767Z,7.68
2022-10-06T21:32:49.465Z,7.58
2022-10-06T21:35:17.750Z,7.53
2022-10-06T21:37:46.674Z,7.49
2022-10-06T21:40:15.414Z,7.44
2022-10-06T21:42:45.112Z,7.47
2022-10-06T21:45:13.105Z,7.45
2022-10-06T21:47:41.792Z,7.49
2022-10-06T21:50:10.908Z,7.46
2022-10-06T21:52:39.476Z,7.47
2022-10-06T21:55:08.868Z,7.53
2022-10-06T21:57:37.383Z,7.46
2022-10-06T22:00:11.156Z,7.46
2022-10-06T22:02:39.610Z,7.33
2022-10-06T22:05:08.535Z,7.38
2022-10-06T22:07:36.953Z,7.35
2022-10-06T22:10:06.111Z,7.32
2022-10-06T22:12:34.334Z,7.34
2022-10-06T22:15:02.716Z,7.31
2022-10-06T22:17:32.505Z,7.43
2022-10-06T22:20:01.029Z,7.34
2022-10-06T22:22:29.135Z,7.34
2022-10-06T22:24:57.380Z,7.28
2022-10-06T22:27:25.747Z,7.25
2022-10-06T22:29:53.955Z,7.28
2022-10-06T22:32:23.449Z,7.23
2022-10-06T22:34:53.935Z,7.18
2022-10-06T22:37:22.033Z,7.15
2022-10-06T22:39:50.270Z,7.08
2022-10-06T22:42:18.412Z,7.08
2022-10-06T22:44:46.593Z,7.09
2022-10-06T22:47:14.990Z,7.09
2022-10-06T22:49:43.260Z,6.97
2022-10-06T22:52:13.077Z,7.07
2022-10-06T22:54:41.365Z,6.93
2022-10-06T22:57:09.608Z,6.96
2022-10-06T22:59:40.270Z,6.95
2022-10-06T23:02:08.449Z,6.91
2022-10-06T23:04:37.139Z,6.89
2022-10-06T23:07:05.211Z,6.82
2022-10-06T23:09:35.321Z,6.76
2022-10-06T23:12:03.518Z,6.72
2022-10-06T23:14:31.647Z,6.67
2022-10-06T23:16:59.851Z,6.63
2022-10-06T23:19:27.925Z,6.62
2022-10-06T23:21:56.004Z,6.58
2022-10-06T23:24:24.044Z,6.56
2022-10-06T23:26:53.717Z,6.53
2022-10-06T23:29:23.389Z,6.53
2022-10-06T23:31:52.207Z,6.51
2022-10-06T23:34:20.407Z,6.51
2022-10-06T23:36:48.680Z,6.52
2022-10-06T23:39:16.977Z,6.52
2022-10-06T23:41:44.960Z,6.49
2022-10-06T23:44:14.458Z,6.51
2022-10-06T23:46:42.935Z,6.51
2022-10-06T23:49:11.117Z,6.48
2022-10-06T23:51:40.495Z,6.49
2022-10-06T23:54:08.680Z,6.44
2022-10-06T23:56:36.783Z,6.43
2022-10-06T23:59:05.360Z,6.40
